createdAt,value
2022-08-28T00:00:40.836Z,2.92
2022-08-28T00:03:10.371Z,3.45
2022-08-28T00:05:39.842Z,3.53
2022-08-28T00:08:08.029Z,3.05
2022-08-28T00:10:35.166Z,3.28
2022-08-28T00:13:02.536Z,3.28
2022-08-28T00:15:33.358Z,3.33
2022-08-28T00:18:00.927Z,3.50
2022-08-28T00:20:29.069Z,3.47
2022-08-28T00:22:56.138Z,3.50
2022-08-28T00:25:25.334Z,3.28
2022-08-28T00:27:55.065Z,3.63
2022-08-28T00:30:24.354Z,3.47
2022-08-28T00:32:53.561Z,3.63
2022-08-28T00:35:21.108Z,3.55
2022-08-28T00:37:48.168Z,3.20
2022-08-28T00:40:18.674Z,3.42
2022-08-28T00:42:56.656Z,3.75
2022-08-28T00:45:24.786Z,3.75
2022-08-28T00:47:51.851Z,3.85
2022-08-28T00:50:23.237Z,3.65
2022-08-28T00:52:54.213Z,4.43
2022-08-28T00:55:24.957Z,3.45
2022-08-28T00:57:56.570Z,3.17
2022-08-28T01:00:35.193Z,4.10
2022-08-28T01:03:03.692Z,3.47
2022-08-28T01:05:30.691Z,3.30
2022-08-28T01:07:58.915Z,5.68
2022-08-28T01:10:28.716Z,3.80
2022-08-28T01:12:57.338Z,3.83
2022-08-28T01:15:33.619Z,3.47
2022-08-28T01:18:08.088Z,3.35
2022-08-28T01:20:43.733Z,3.95
2022-08-28T01:23:27.734Z,4.45
2022-08-28T01:25:55.108Z,3.92
2022-08-28T01:28:21.944Z,3.47
2022-08-28T01:30:49.693Z,4.03
2022-08-28T01:33:16.973Z,3.33
2022-08-28T01:35:47.557Z,4.10
2022-08-28T01:38:17.607Z,3.10
2022-08-28T01:40:49.735Z,3.92
2022-08-28T01:43:22.499Z,3.38
2022-08-28T01:45:56.145Z,3.83
2022-08-28T01:48:25.926Z,3.72
2022-08-28T01:50:52.980Z,3.83
2022-08-28T01:53:24.751Z,4.72
2022-08-28T01:55:53.886Z,3.63
2022-08-28T01:58:22.073Z,4.07
2022-08-28T02:00:49.010Z,4.80
2022-08-28T02:03:16.212Z,4.72
2022-08-28T02:05:44.051Z,4.50
2022-08-28T02:08:10.956Z,3.97
2022-08-28T02:10:40.228Z,3.53
2022-08-28T02:13:08.268Z,3.67
2022-08-28T02:15:36.570Z,4.72
2022-08-28T02:18:04.157Z,4.32
2022-08-28T02:20:31.291Z,4.28
2022-08-28T02:22:58.777Z,4.63
2022-08-28T02:25:27.316Z,4.38
2022-08-28T02:27:54.466Z,3.95
2022-08-28T02:30:21.515Z,4.45
2022-08-28T02:32:48.343Z,5.43
2022-08-28T02:35:17.117Z,4.28
2022-08-28T02:37:45.429Z,3.70
2022-08-28T02:40:15.868Z,4.03
2022-08-28T02:42:43.636Z,4.25
2022-08-28T02:45:12.569Z,3.97
2022-08-28T02:47:41.995Z,3.47
2022-08-28T02:50:10.943Z,4.05
2022-08-28T02:52:38.102Z,4.72
2022-08-28T02:55:06.425Z,4.07
2022-08-28T02:57:34.083Z,4.32
2022-08-28T03:00:01.743Z,4.05
2022-08-28T03:02:28.697Z,4.53
2022-08-28T03:04:56.050Z,4.47
2022-08-28T03:07:22.867Z,4.30
2022-08-28T03:09:50.502Z,4.25
2022-08-28T03:12:17.423Z,4.55
2022-08-28T03:14:44.339Z,4.63
2022-08-28T03:17:11.162Z,4.60
2022-08-28T03:19:37.977Z,3.65
2022-08-28T03:22:04.840Z,4.55
2022-08-28T03:24:31.770Z,4.50
2022-08-28T03:27:01.766Z,4.03
2022-08-28T03:29:28.745Z,4.15
2022-08-28T03:31:55.550Z,3.78
2022-08-28T03:34:22.367Z,3.67
2022-08-28T03:36:49.434Z,4.03
2022-08-28T03:39:16.342Z,3.97
2022-08-28T03:41:43.458Z,3.90
2022-08-28T03:44:10.631Z,4.68
2022-08-28T03:46:38.886Z,3.80
2022-08-28T03:49:06.336Z,5.18
2022-08-28T03:51:34.688Z,3.60
2022-08-28T03:54:04.054Z,4.55
2022-08-28T03:56:31.356Z,4.38
2022-08-28T03:59:01.058Z,3.72
2022-08-28T04:01:28.192Z,3.72
2022-08-28T04:03:55.967Z,3.85
2022-08-28T04:06:23.400Z,4.32
2022-08-28T04:08:51.129Z,3.78
2022-08-28T04:11:18.622Z,4.03
2022-08-28T04:13:45.869Z,4.35
2022-08-28T04:16:17.010Z,3.70
2022-08-28T04:18:44.981Z,4.03
2022-08-28T04:21:18.239Z,3.88
2022-08-28T04:23:46.380Z,4.25
2022-08-28T04:26:16.544Z,3.55
2022-08-28T04:28:44.005Z,3.42
2022-08-28T04:31:11.489Z,3.65
2022-08-28T04:33:39.216Z,3.70
2022-08-28T04:36:17.254Z,3.25
2022-08-28T04:38:44.380Z,3.58
2022-08-28T04:41:13.261Z,3.80
2022-08-28T04:43:40.222Z,3.75
2022-08-28T04:46:12.318Z,3.72
2022-08-28T04:48:40.521Z,3.22
2022-08-28T04:51:09.681Z,3.45
2022-08-28T04:53:38.004Z,3.60
2022-08-28T04:56:07.300Z,3.47
2022-08-28T04:58:34.399Z,3.70
2022-08-28T05:01:13.963Z,3.63
2022-08-28T05:03:40.945Z,4.00
2022-08-28T05:06:08.631Z,3.53
2022-08-28T05:08:35.875Z,3.88
2022-08-28T05:11:35.333Z,3.72
2022-08-28T05:14:05.483Z,3.45
2022-08-28T05:16:34.459Z,3.17
2022-08-28T05:19:02.842Z,3.92
2022-08-28T05:21:29.739Z,4.40
2022-08-28T05:23:57.787Z,3.50
2022-08-28T05:26:27.004Z,3.92
2022-08-28T05:28:56.467Z,3.25
2022-08-28T05:31:24.586Z,3.28
2022-08-28T05:33:52.784Z,3.38
2022-08-28T05:36:22.894Z,2.90
2022-08-28T05:38:51.446Z,3.35
2022-08-28T05:41:26.451Z,3.63
2022-08-28T05:43:54.129Z,3.50
2022-08-28T05:46:22.411Z,3.67
2022-08-28T05:48:49.765Z,3.47
2022-08-28T05:51:20.510Z,2.65
2022-08-28T05:53:50.025Z,3.13
2022-08-28T05:56:32.818Z,3.50
2022-08-28T06:01:30.537Z,3.60
2022-08-28T06:04:03.475Z,3.33
2022-08-28T06:06:34.286Z,3.42
2022-08-28T06:09:05.446Z,3.03
2022-08-28T06:11:33.378Z,2.92
2022-08-28T06:14:02.441Z,3.17
2022-08-28T06:16:31.439Z,3.00
2022-08-28T06:18:59.090Z,2.65
2022-08-28T06:21:26.247Z,2.90
2022-08-28T06:23:53.322Z,2.83
2022-08-28T06:26:20.286Z,3.15
2022-08-28T06:28:47.116Z,3.25
2022-08-28T06:31:25.016Z,2.83
2022-08-28T06:33:58.436Z,3.08
2022-08-28T06:36:28.069Z,2.55
2022-08-28T06:38:58.087Z,3.90
2022-08-28T06:41:25.870Z,2.80
2022-08-28T06:43:53.170Z,2.80
2022-08-28T06:46:20.080Z,2.63
2022-08-28T06:48:47.031Z,2.60
2022-08-28T06:51:14.642Z,2.47
2022-08-28T06:53:43.549Z,2.80
2022-08-28T06:56:25.623Z,3.38
2022-08-28T06:58:54.978Z,2.50
2022-08-28T07:01:34.837Z,3.05
2022-08-28T07:04:05.884Z,2.63
2022-08-28T07:06:35.858Z,2.40
2022-08-28T07:09:05.507Z,2.70
2022-08-28T07:11:34.663Z,2.58
2022-08-28T07:14:03.003Z,4.22
2022-08-28T07:16:38.115Z,2.78
2022-08-28T07:19:06.717Z,2.33
2022-08-28T07:21:39.302Z,2.33
2022-08-28T07:24:07.827Z,2.05
2022-08-28T07:26:35.951Z,2.50
2022-08-28T07:29:10.138Z,2.28
2022-08-28T07:31:40.973Z,2.30
2022-08-28T07:34:09.481Z,2.55
2022-08-28T07:36:36.808Z,2.60
2022-08-28T07:39:05.211Z,2.53
2022-08-28T07:41:33.857Z,2.47
2022-08-28T07:44:26.803Z,2.53
2022-08-28T07:46:59.233Z,2.33
2022-08-28T07:51:54.585Z,2.45
2022-08-28T07:54:22.803Z,2.55
2022-08-28T07:56:50.338Z,2.47
2022-08-28T07:59:19.208Z,2.05
2022-08-28T08:01:48.579Z,2.95
2022-08-28T08:04:16.565Z,2.25
2022-08-28T08:06:44.270Z,1.95
2022-08-28T08:09:14.111Z,2.10
2022-08-28T08:11:40.986Z,2.28
2022-08-28T08:14:08.637Z,2.50
2022-08-28T08:16:39.095Z,2.00
2022-08-28T08:19:10.064Z,2.17
2022-08-28T08:21:38.449Z,2.13
2022-08-28T08:24:05.929Z,2.20
2022-08-28T08:26:33.425Z,2.10
2022-08-28T08:29:00.976Z,2.00
2022-08-28T08:31:34.147Z,2.40
2022-08-28T08:34:05.008Z,2.47
2022-08-28T08:36:35.257Z,2.33
2022-08-28T08:39:02.270Z,2.53
2022-08-28T08:41:33.461Z,2.20
2022-08-28T08:44:33.825Z,2.50
2022-08-28T08:47:16.623Z,2.15
2022-08-28T08:49:51.360Z,2.85
2022-08-28T08:52:29.240Z,2.55
2022-08-28T08:55:19.992Z,2.20
2022-08-28T08:57:51.329Z,2.20
2022-08-28T09:00:19.740Z,2.25
2022-08-28T09:03:09.735Z,2.15
2022-08-28T09:06:03.748Z,2.22
2022-08-28T09:08:44.592Z,2.50
2022-08-28T09:11:22.089Z,2.10
2022-08-28T09:14:08.581Z,2.35
2022-08-28T09:16:44.220Z,1.88
2022-08-28T09:19:15.057Z,2.22
2022-08-28T09:21:45.145Z,2.20
2022-08-28T09:24:28.465Z,2.35
2022-08-28T09:26:59.448Z,2.03
2022-08-28T09:29:31.552Z,2.28
2022-08-28T09:31:58.959Z,2.78
2022-08-28T09:34:38.603Z,2.30
2022-08-28T09:37:08.500Z,2.30
2022-08-28T09:39:38.204Z,2.42
2022-08-28T09:42:44.064Z,1.92
2022-08-28T09:45:23.879Z,1.85
2022-08-28T09:47:54.211Z,1.80
2022-08-28T09:50:31.988Z,1.95
2022-08-28T09:53:11.641Z,2.38
2022-08-28T09:56:11.137Z,2.08
2022-08-28T09:58:43.638Z,1.77
2022-08-28T10:01:16.272Z,2.30
2022-08-28T10:04:09.890Z,2.00
2022-08-28T10:06:37.609Z,2.17
2022-08-28T10:09:15.444Z,1.85
2022-08-28T10:11:58.134Z,2.58
2022-08-28T10:14:31.953Z,1.98
2022-08-28T10:17:25.365Z,2.10
2022-08-28T10:20:10.041Z,1.98
2022-08-28T10:22:55.223Z,1.67
2022-08-28T10:25:31.059Z,1.98
2022-08-28T10:28:10.156Z,1.88
2022-08-28T10:30:45.869Z,2.13
2022-08-28T10:33:59.921Z,2.00
2022-08-28T10:36:34.644Z,2.45
2022-08-28T10:39:12.202Z,2.10
2022-08-28T10:41:45.984Z,1.40
2022-08-28T10:44:21.290Z,1.90
2022-08-28T10:46:55.885Z,1.95
2022-08-28T10:49:28.476Z,1.70
2022-08-28T10:52:13.730Z,1.70
2022-08-28T10:54:54.711Z,1.80
2022-08-28T10:57:41.272Z,1.63
2022-08-28T11:00:15.861Z,2.15
2022-08-28T11:02:50.537Z,2.33
2022-08-28T11:05:27.367Z,1.77
2022-08-28T11:08:01.011Z,1.92
2022-08-28T11:10:34.974Z,1.98
2022-08-28T11:13:03.743Z,1.95
2022-08-28T11:15:36.790Z,1.90
2022-08-28T11:18:16.789Z,1.90
2022-08-28T11:21:05.670Z,2.05
2022-08-28T11:23:42.048Z,1.60
2022-08-28T11:26:12.896Z,1.80
2022-08-28T11:28:47.410Z,2.13
2022-08-28T11:31:19.122Z,2.03
2022-08-28T11:33:59.044Z,2.55
2022-08-28T11:36:28.154Z,1.80
2022-08-28T11:38:55.493Z,1.77
2022-08-28T11:41:59.682Z,1.75
2022-08-28T11:44:38.042Z,1.80
2022-08-28T11:47:34.515Z,1.75
2022-08-28T11:50:28.680Z,1.80
2022-08-28T11:53:12.036Z,1.80
2022-08-28T11:56:14.325Z,1.80
2022-08-28T11:59:35.455Z,1.85
2022-08-28T12:02:36.931Z,1.63
2022-08-28T12:05:09.841Z,1.83
2022-08-28T12:07:47.504Z,2.03
2022-08-28T12:10:20.455Z,1.83
2022-08-28T12:12:47.296Z,1.77
2022-08-28T12:15:33.357Z,1.90
2022-08-28T12:18:36.797Z,1.77
2022-08-28T12:21:07.329Z,2.10
2022-08-28T12:24:14.723Z,1.90
2022-08-28T12:26:50.164Z,1.77
2022-08-28T12:29:38.518Z,1.60
2022-08-28T12:32:43.650Z,1.77
2022-08-28T12:35:22.625Z,1.85
2022-08-28T12:37:55.917Z,1.65
2022-08-28T12:40:38.052Z,1.45
2022-08-28T12:43:06.432Z,2.00
2022-08-28T12:45:45.491Z,1.88
2022-08-28T12:48:27.099Z,2.15
2022-08-28T12:51:13.371Z,1.90
2022-08-28T12:53:47.800Z,1.65
2022-08-28T12:56:18.477Z,1.48
2022-08-28T12:58:47.145Z,1.50
2022-08-28T13:01:21.715Z,1.50
2022-08-28T13:03:57.016Z,1.70
2022-08-28T13:06:36.534Z,1.83
2022-08-28T13:09:14.862Z,1.98
2022-08-28T13:11:51.503Z,2.13
2022-08-28T13:14:36.995Z,1.95
2022-08-28T13:17:04.501Z,2.00
2022-08-28T13:19:33.558Z,2.05
2022-08-28T13:22:08.428Z,1.83
2022-08-28T13:24:35.274Z,1.70
2022-08-28T13:27:14.021Z,1.85
2022-08-28T13:30:21.104Z,1.75
2022-08-28T13:33:24.635Z,1.80
2022-08-28T13:35:53.676Z,1.80
2022-08-28T13:38:25.027Z,1.80
2022-08-28T13:40:59.391Z,1.70
2022-08-28T13:43:30.463Z,2.35
2022-08-28T13:45:58.203Z,1.55
2022-08-28T13:48:27.237Z,1.80
2022-08-28T13:51:00.095Z,2.03
2022-08-28T13:53:26.967Z,1.60
2022-08-28T13:55:53.859Z,1.63
2022-08-28T13:58:21.975Z,2.08
2022-08-28T14:00:50.912Z,1.90
2022-08-28T14:03:37.866Z,1.60
2022-08-28T14:06:12.215Z,2.10
2022-08-28T14:08:40.783Z,2.45
2022-08-28T14:11:08.203Z,1.98
2022-08-28T14:13:40.818Z,1.83
2022-08-28T14:16:16.815Z,1.88
2022-08-28T14:18:43.779Z,1.70
2022-08-28T14:21:10.769Z,1.88
2022-08-28T14:23:38.076Z,1.98
2022-08-28T14:26:05.824Z,2.15
2022-08-28T14:28:32.685Z,2.03
2022-08-28T14:30:59.562Z,2.03
2022-08-28T14:33:26.419Z,1.95
2022-08-28T14:35:54.850Z,1.67
2022-08-28T14:38:21.742Z,1.98
2022-08-28T14:40:48.678Z,1.83
2022-08-28T14:43:15.774Z,2.30
2022-08-28T14:45:48.124Z,2.13
2022-08-28T14:48:16.790Z,2.70
2022-08-28T14:50:46.223Z,2.38
2022-08-28T14:53:14.048Z,2.38
2022-08-28T14:55:46.683Z,2.58
2022-08-28T14:58:13.905Z,2.85
2022-08-28T15:00:48.116Z,2.30
2022-08-28T15:03:15.498Z,2.40
2022-08-28T15:05:42.831Z,2.15
2022-08-28T15:08:12.794Z,2.38
2022-08-28T15:10:42.253Z,2.20
2022-08-28T15:13:10.701Z,2.63
2022-08-28T15:15:39.659Z,3.03
2022-08-28T15:18:08.019Z,2.20
2022-08-28T15:20:40.760Z,2.30
2022-08-28T15:23:08.716Z,2.67
2022-08-28T15:25:35.576Z,2.35
2022-08-28T15:28:02.665Z,2.22
2022-08-28T15:30:29.609Z,2.60
2022-08-28T15:32:56.505Z,2.58
2022-08-28T15:35:23.515Z,2.35
2022-08-28T15:37:51.449Z,2.88
2022-08-28T15:40:37.046Z,2.75
2022-08-28T15:43:04.036Z,2.22
2022-08-28T15:45:31.038Z,2.58
2022-08-28T15:47:58.663Z,3.20
2022-08-28T15:50:25.575Z,2.60
2022-08-28T15:52:53.541Z,2.70
2022-08-28T15:55:20.453Z,2.72
2022-08-28T15:57:47.437Z,2.45
2022-08-28T16:00:14.879Z,2.70
2022-08-28T16:02:41.856Z,2.53
2022-08-28T16:05:09.539Z,2.85
2022-08-28T16:07:36.390Z,3.13
2022-08-28T16:10:07.223Z,2.72
2022-08-28T16:12:35.472Z,2.88
2022-08-28T16:15:02.324Z,3.10
2022-08-28T16:17:29.162Z,3.05
2022-08-28T16:19:56.081Z,2.70
2022-08-28T16:22:23.350Z,3.13
2022-08-28T16:24:51.128Z,2.70
2022-08-28T16:27:18.214Z,3.42
2022-08-28T16:29:46.130Z,3.30
2022-08-28T16:32:16.391Z,3.20
2022-08-28T16:34:44.728Z,2.90
2022-08-28T16:37:12.523Z,2.88
2022-08-28T16:39:39.474Z,2.92
2022-08-28T16:42:06.486Z,3.58
2022-08-28T16:44:33.526Z,3.88
2022-08-28T16:47:01.252Z,3.60
2022-08-28T16:49:28.116Z,3.72
2022-08-28T16:51:54.934Z,3.55
2022-08-28T16:54:22.257Z,3.80
2022-08-28T16:56:49.261Z,3.80
2022-08-28T16:59:20.471Z,3.58
2022-08-28T17:01:53.012Z,4.07
2022-08-28T17:04:20.983Z,3.47
2022-08-28T17:06:47.911Z,3.17
2022-08-28T17:09:14.863Z,3.40
2022-08-28T17:11:41.818Z,3.55
2022-08-28T17:14:11.093Z,2.90
2022-08-28T17:16:38.072Z,3.15
2022-08-28T17:19:05.038Z,3.33
2022-08-28T17:21:50.432Z,3.55
2022-08-28T17:24:17.366Z,3.60
2022-08-28T17:26:44.536Z,3.47
2022-08-28T17:29:11.758Z,3.30
2022-08-28T17:31:39.202Z,3.83
2022-08-28T17:34:07.408Z,3.58
2022-08-28T17:36:36.798Z,3.75
2022-08-28T17:39:06.897Z,3.38
2022-08-28T17:41:34.156Z,3.63
2022-08-28T17:44:01.810Z,3.22
2022-08-28T17:46:37.535Z,3.42
2022-08-28T17:49:06.127Z,3.58
2022-08-28T17:51:42.035Z,3.22
2022-08-28T17:54:18.546Z,3.05
2022-08-28T17:56:46.465Z,3.65
2022-08-28T17:59:14.691Z,3.30
2022-08-28T18:01:44.515Z,3.03
2022-08-28T18:04:12.317Z,3.22
2022-08-28T18:06:39.453Z,3.50
2022-08-28T18:09:08.187Z,3.35
2022-08-28T18:11:35.607Z,3.33
2022-08-28T18:14:03.140Z,3.85
2022-08-28T18:16:33.216Z,3.45
2022-08-28T18:19:01.025Z,3.15
2022-08-28T18:21:28.394Z,3.45
2022-08-28T18:23:55.313Z,3.60
2022-08-28T18:26:22.208Z,3.65
2022-08-28T18:28:49.583Z,3.25
2022-08-28T18:31:18.310Z,3.83
2022-08-28T18:33:45.671Z,3.88
2022-08-28T18:36:14.502Z,3.50
2022-08-28T18:38:43.549Z,3.60
2022-08-28T18:41:12.274Z,3.42
2022-08-28T18:43:39.769Z,3.60
2022-08-28T18:46:09.401Z,3.40
2022-08-28T18:48:37.833Z,3.75
2022-08-28T18:51:09.908Z,3.38
2022-08-28T18:53:37.548Z,4.13
2022-08-28T18:56:06.288Z,3.22
2022-08-28T18:58:34.056Z,3.25
2022-08-28T19:01:02.298Z,3.28
2022-08-28T19:03:30.142Z,3.35
2022-08-28T19:05:57.329Z,3.40
2022-08-28T19:08:25.368Z,3.33
2022-08-28T19:10:53.013Z,4.45
2022-08-28T19:13:20.428Z,3.10
2022-08-28T19:15:52.577Z,2.78
2022-08-28T19:18:20.110Z,3.45
2022-08-28T19:20:47.401Z,3.17
2022-08-28T19:23:17.394Z,3.88
2022-08-28T19:25:44.889Z,3.03
2022-08-28T19:28:11.755Z,3.30
2022-08-28T19:30:38.610Z,2.92
2022-08-28T19:33:06.111Z,3.45
2022-08-28T19:35:33.909Z,3.97
2022-08-28T19:38:01.425Z,2.85
2022-08-28T19:40:29.092Z,3.25
2022-08-28T19:42:56.253Z,3.17
2022-08-28T19:45:23.598Z,3.20
2022-08-28T19:47:50.656Z,2.85
2022-08-28T19:50:18.178Z,3.22
2022-08-28T19:52:46.484Z,3.30
2022-08-28T19:55:17.676Z,3.20
2022-08-28T19:57:46.878Z,3.47
2022-08-28T20:00:15.347Z,2.90
2022-08-28T20:02:42.348Z,3.00
2022-08-28T20:05:10.445Z,3.00
2022-08-28T20:07:37.346Z,3.30
2022-08-28T20:10:05.815Z,3.25
2022-08-28T20:12:32.860Z,3.00
2022-08-28T20:15:03.262Z,3.10
2022-08-28T20:17:30.812Z,3.35
2022-08-28T20:20:02.462Z,3.70
2022-08-28T20:22:31.816Z,3.33
2022-08-28T20:24:59.393Z,3.63
2022-08-28T20:27:26.547Z,3.15
2022-08-28T20:29:53.454Z,3.20
2022-08-28T20:32:20.566Z,3.22
2022-08-28T20:34:47.607Z,3.20
2022-08-28T20:37:16.662Z,3.00
2022-08-28T20:39:43.713Z,3.40
2022-08-28T20:42:12.516Z,2.80
2022-08-28T20:44:39.718Z,3.90
2022-08-28T20:47:06.734Z,3.65
2022-08-28T20:49:39.327Z,3.20
2022-08-28T20:52:06.890Z,3.42
2022-08-28T20:54:38.865Z,3.53
2022-08-28T20:57:11.780Z,3.45
2022-08-28T20:59:41.081Z,3.63
2022-08-28T21:02:20.224Z,3.42
2022-08-28T21:04:47.852Z,2.83
2022-08-28T21:07:20.059Z,3.08
2022-08-28T21:10:04.626Z,3.50
2022-08-28T21:12:34.908Z,3.30
2022-08-28T21:15:02.429Z,3.20
2022-08-28T21:17:30.667Z,3.40
2022-08-28T21:20:04.492Z,2.92
2022-08-28T21:22:35.264Z,2.95
2022-08-28T21:25:04.519Z,3.30
2022-08-28T21:27:31.657Z,2.83
2022-08-28T21:30:00.088Z,3.10
2022-08-28T21:32:29.484Z,2.78
2022-08-28T21:34:57.401Z,3.85
2022-08-28T21:37:24.421Z,3.00
2022-08-28T21:39:56.190Z,3.20
2022-08-28T21:42:23.523Z,3.67
2022-08-28T21:44:51.894Z,2.90
2022-08-28T21:47:21.463Z,2.95
2022-08-28T21:49:50.165Z,3.28
2022-08-28T21:52:18.403Z,3.03
2022-08-28T21:54:45.300Z,2.95
2022-08-28T21:57:12.260Z,3.33
2022-08-28T21:59:39.265Z,3.40
2022-08-28T22:02:06.468Z,4.18
2022-08-28T22:04:34.809Z,3.47
2022-08-28T22:07:01.900Z,3.38
2022-08-28T22:09:29.281Z,3.00
2022-08-28T22:11:56.229Z,3.35
2022-08-28T22:14:25.204Z,3.00
2022-08-28T22:16:52.397Z,3.08
2022-08-28T22:19:19.518Z,3.10
2022-08-28T22:22:04.825Z,4.05
2022-08-28T22:24:31.733Z,3.03
2022-08-28T22:26:58.638Z,3.05
2022-08-28T22:29:25.997Z,3.05
2022-08-28T22:31:53.043Z,2.83
2022-08-28T22:34:20.097Z,3.58
2022-08-28T22:36:47.136Z,3.33
2022-08-28T22:39:14.022Z,3.38
2022-08-28T22:41:42.159Z,3.00
2022-08-28T22:44:10.003Z,3.20
2022-08-28T22:46:36.906Z,3.55
2022-08-28T22:49:04.335Z,3.50
2022-08-28T22:51:33.942Z,3.10
2022-08-28T22:54:00.809Z,3.30
2022-08-28T22:56:27.678Z,2.90
2022-08-28T22:58:54.537Z,3.97
2022-08-28T23:01:23.664Z,3.47
2022-08-28T23:03:50.723Z,3.63
2022-08-28T23:06:21.669Z,2.95
2022-08-28T23:08:48.623Z,3.15
2022-08-28T23:11:15.498Z,3.63
2022-08-28T23:13:42.337Z,2.90
2022-08-28T23:16:09.626Z,3.20
2022-08-28T23:19:06.042Z,3.30
2022-08-28T23:21:26.384Z,3.40
2022-08-28T23:23:55.185Z,3.05
2022-08-28T23:26:23.315Z,2.90
2022-08-28T23:28:50.945Z,3.30
2022-08-28T23:31:18.285Z,3.03
2022-08-28T23:33:46.513Z,2.95
2022-08-28T23:36:14.719Z,4.47
2022-08-28T23:38:43.214Z,3.72
2022-08-28T23:41:10.941Z,3.03
2022-08-28T23:43:38.231Z,3.30
2022-08-28T23:46:05.357Z,2.97
2022-08-28T23:48:32.938Z,2.92
2022-08-28T23:50:59.926Z,3.28
2022-08-28T23:53:26.937Z,3.47
2022-08-28T23:55:54.365Z,3.70
2022-08-28T23:58:22.709Z,3.28
